createdAt,value
2018-06-10T00:00:06.047Z,99.99
2018-06-10T00:01:06.014Z,99.99
2018-06-10T00:02:06.017Z,99.99
2018-06-10T00:03:06.020Z,99.99
2018-06-10T00:04:06.023Z,99.99
2018-06-10T00:05:06.027Z,99.99
2018-06-10T00:06:06.034Z,99.99
2018-06-10T00:07:06.032Z,99.99
2018-06-10T00:08:06.038Z,99.99
2018-06-10T00:09:06.042Z,99.99
2018-06-10T00:10:06.045Z,99.99
2018-06-10T00:11:06.054Z,99.99
2018-06-10T00:12:06.051Z,99.99
2018-06-10T00:13:06.057Z,99.99
2018-06-10T00:14:06.077Z,99.99
2018-06-10T00:15:06.063Z,99.99
2018-06-10T00:16:06.069Z,99.99
2018-06-10T00:17:06.072Z,99.99
2018-06-10T00:18:06.079Z,99.99
2018-06-10T00:19:06.081Z,99.99
2018-06-10T00:20:06.082Z,99.99
2018-06-10T00:21:06.089Z,99.99
2018-06-10T00:22:06.089Z,99.99
2018-06-10T00:23:06.094Z,99.99
2018-06-10T00:24:06.097Z,99.99
2018-06-10T00:25:06.107Z,99.99
2018-06-10T00:26:06.109Z,99.99
2018-06-10T00:27:06.109Z,99.99
2018-06-10T00:28:06.117Z,99.99
2018-06-10T00:29:06.116Z,99.99
2018-06-10T00:30:06.121Z,99.99
2018-06-10T00:31:06.125Z,99.99
2018-06-10T00:32:06.127Z,99.99
2018-06-10T00:33:06.135Z,99.99
2018-06-10T00:34:06.137Z,99.99
2018-06-10T00:35:06.143Z,99.99
2018-06-10T00:36:06.142Z,99.99
2018-06-10T00:37:06.149Z,99.99
2018-06-10T00:38:06.149Z,99.99
2018-06-10T00:39:06.161Z,99.99
2018-06-10T00:40:06.159Z,99.99
2018-06-10T00:41:06.158Z,99.99
2018-06-10T00:42:06.165Z,99.99
2018-06-10T00:43:06.171Z,99.99
2018-06-10T00:44:06.172Z,99.99
2018-06-10T00:45:06.175Z,99.99
2018-06-10T00:46:06.181Z,99.99
2018-06-10T00:47:06.185Z,99.99
2018-06-10T00:48:06.187Z,99.99
2018-06-10T00:49:06.200Z,99.99
2018-06-10T00:50:06.196Z,99.99
2018-06-10T00:51:06.197Z,99.99
2018-06-10T00:52:06.203Z,99.99
2018-06-10T00:53:06.207Z,99.99
2018-06-10T00:54:06.212Z,99.99
2018-06-10T00:55:06.216Z,99.99
2018-06-10T00:56:06.219Z,99.99
2018-06-10T00:57:06.222Z,99.99
2018-06-10T00:58:06.230Z,99.99
2018-06-10T00:59:06.225Z,99.99
2018-06-10T01:00:06.232Z,99.99
2018-06-10T01:01:06.242Z,99.99
2018-06-10T01:02:06.272Z,99.99
2018-06-10T01:03:06.257Z,99.99
2018-06-10T01:04:06.249Z,99.99
2018-06-10T01:05:06.256Z,99.99
2018-06-10T01:06:06.258Z,99.99
2018-06-10T01:07:06.260Z,99.99
2018-06-10T01:08:06.264Z,99.99
2018-06-10T01:09:06.299Z,99.99
2018-06-10T01:10:06.271Z,99.99
2018-06-10T01:11:06.290Z,99.99
2018-06-10T01:12:06.302Z,99.99
2018-06-10T01:13:06.284Z,99.99
2018-06-10T01:14:06.288Z,99.99
2018-06-10T01:15:06.290Z,99.99
2018-06-10T01:16:06.294Z,99.99
2018-06-10T01:17:06.303Z,99.99
2018-06-10T01:18:06.301Z,99.99
2018-06-10T01:19:06.304Z,99.99
2018-06-10T01:20:06.313Z,99.99
2018-06-10T01:21:06.312Z,99.99
2018-06-10T01:22:06.317Z,99.99
2018-06-10T01:23:06.325Z,99.99
2018-06-10T01:24:06.324Z,99.99
2018-06-10T01:25:06.327Z,99.99
2018-06-10T01:26:06.332Z,99.99
2018-06-10T01:27:06.342Z,99.99
2018-06-10T01:28:06.339Z,99.99
2018-06-10T01:29:06.362Z,99.99
2018-06-10T01:30:06.348Z,99.99
2018-06-10T01:31:06.353Z,99.99
2018-06-10T01:32:06.354Z,99.99
2018-06-10T01:33:06.365Z,99.99
2018-06-10T01:34:06.362Z,99.99
2018-06-10T01:35:06.362Z,99.99
2018-06-10T01:36:06.369Z,99.99
2018-06-10T01:37:06.373Z,99.99
2018-06-10T01:38:06.378Z,99.99
2018-06-10T01:39:06.380Z,99.99
2018-06-10T01:40:06.383Z,99.99
2018-06-10T01:41:06.388Z,99.99
2018-06-10T01:42:06.393Z,99.99
2018-06-10T01:43:06.395Z,99.99
2018-06-10T01:44:06.398Z,99.99
2018-06-10T01:45:06.399Z,99.99
2018-06-10T01:46:06.412Z,99.99
2018-06-10T01:47:06.413Z,99.99
2018-06-10T01:48:06.413Z,99.99
2018-06-10T01:49:06.416Z,99.99
2018-06-10T01:50:06.455Z,99.99
2018-06-10T01:51:06.428Z,99.99
2018-06-10T01:52:06.443Z,99.99
2018-06-10T01:53:06.437Z,99.99
2018-06-10T01:54:06.434Z,99.99
2018-06-10T01:55:06.438Z,99.99
2018-06-10T01:56:06.442Z,99.99
2018-06-10T01:57:06.446Z,99.99
2018-06-10T01:58:06.454Z,99.99
2018-06-10T01:59:06.453Z,99.99
2018-06-10T02:00:06.458Z,99.99
2018-06-10T02:01:06.462Z,99.99
2018-06-10T02:02:06.481Z,99.99
2018-06-10T02:03:06.467Z,99.99
2018-06-10T02:04:06.472Z,99.99
2018-06-10T02:05:06.484Z,99.99
2018-06-10T02:06:06.483Z,99.99
2018-06-10T02:07:06.484Z,99.99
2018-06-10T02:08:06.487Z,99.99
2018-06-10T02:09:06.491Z,99.99
2018-06-10T02:10:06.519Z,99.99
2018-06-10T02:11:06.499Z,99.99
2018-06-10T02:12:06.504Z,99.99
2018-06-10T02:13:06.503Z,99.99
2018-06-10T02:14:06.511Z,99.99
2018-06-10T02:15:06.516Z,99.99
2018-06-10T02:16:06.515Z,99.99
2018-06-10T02:17:06.525Z,99.99
2018-06-10T02:18:06.523Z,99.99
2018-06-10T02:19:06.531Z,99.99
2018-06-10T02:20:06.533Z,99.99
2018-06-10T02:21:06.536Z,99.99
2018-06-10T02:22:06.543Z,99.99
2018-06-10T02:23:06.564Z,99.99
2018-06-10T02:24:06.559Z,99.99
2018-06-10T02:25:06.553Z,99.99
2018-06-10T02:26:06.556Z,99.99
2018-06-10T02:27:06.558Z,99.99
2018-06-10T02:28:06.564Z,99.99
2018-06-10T02:29:06.575Z,99.99
2018-06-10T02:30:06.571Z,99.99
2018-06-10T02:31:06.572Z,99.99
2018-06-10T02:32:06.577Z,99.99
2018-06-10T02:33:06.579Z,99.99
2018-06-10T02:34:06.587Z,99.99
2018-06-10T02:35:06.592Z,99.99
2018-06-10T02:36:06.598Z,99.99
2018-06-10T02:37:06.600Z,99.99
2018-06-10T02:38:06.601Z,99.99
2018-06-10T02:39:06.645Z,99.99
2018-06-10T02:40:06.611Z,99.99
2018-06-10T02:41:06.615Z,99.99
2018-06-10T02:42:06.624Z,99.99
2018-06-10T02:43:06.625Z,99.99
2018-06-10T02:44:06.625Z,99.99
2018-06-10T02:45:06.627Z,99.99
2018-06-10T02:46:06.633Z,99.99
2018-06-10T02:47:06.637Z,99.99
2018-06-10T02:48:06.645Z,99.99
2018-06-10T02:49:06.646Z,99.99
2018-06-10T02:50:06.648Z,99.99
2018-06-10T02:51:06.653Z,99.99
2018-06-10T02:52:06.660Z,99.99
2018-06-10T02:53:06.663Z,99.99
2018-06-10T02:54:06.667Z,99.99
2018-06-10T02:55:06.669Z,99.99
2018-06-10T02:56:06.680Z,99.99
2018-06-10T02:57:06.682Z,99.99
2018-06-10T02:58:06.684Z,99.99
2018-06-10T02:59:06.697Z,99.99
2018-06-10T03:00:06.690Z,99.99
2018-06-10T03:01:06.697Z,99.99
2018-06-10T03:02:06.701Z,99.99
2018-06-10T03:03:06.705Z,99.99
2018-06-10T03:04:06.709Z,99.99
2018-06-10T03:05:06.718Z,99.99
2018-06-10T03:06:06.717Z,99.99
2018-06-10T03:07:06.722Z,99.99
2018-06-10T03:08:06.729Z,99.99
2018-06-10T03:09:06.730Z,99.99
2018-06-10T03:10:06.739Z,99.99
2018-06-10T03:11:06.738Z,99.99
2018-06-10T03:12:06.746Z,99.99
2018-06-10T03:13:06.747Z,99.99
2018-06-10T03:14:06.752Z,99.99
2018-06-10T03:15:06.759Z,99.99
2018-06-10T03:16:06.756Z,99.99
2018-06-10T03:17:06.764Z,99.99
2018-06-10T03:18:06.769Z,99.99
2018-06-10T03:19:06.768Z,99.99
2018-06-10T03:20:06.778Z,99.99
2018-06-10T03:21:06.795Z,99.99
2018-06-10T03:22:06.783Z,99.99
2018-06-10T03:23:06.786Z,99.99
2018-06-10T03:24:06.790Z,99.99
2018-06-10T03:25:06.797Z,99.99
2018-06-10T03:26:06.800Z,99.99
2018-06-10T03:27:06.802Z,99.99
2018-06-10T03:28:06.806Z,99.99
2018-06-10T03:29:06.811Z,99.99
2018-06-10T03:30:06.816Z,99.99
2018-06-10T03:31:06.820Z,99.99
2018-06-10T03:32:06.846Z,99.99
2018-06-10T03:33:06.827Z,99.99
2018-06-10T03:34:06.831Z,99.99
2018-06-10T03:35:06.832Z,99.99
2018-06-10T03:36:06.838Z,99.99
2018-06-10T03:37:06.844Z,99.99
2018-06-10T03:38:06.847Z,99.99
2018-06-10T03:39:06.853Z,99.99
2018-06-10T03:40:06.858Z,99.99
2018-06-10T03:41:06.857Z,99.99
2018-06-10T03:42:06.862Z,99.99
2018-06-10T03:43:06.864Z,99.99
2018-06-10T03:44:06.868Z,99.99
2018-06-10T03:45:06.879Z,99.99
2018-06-10T03:46:06.885Z,99.99
2018-06-10T03:47:06.881Z,99.99
2018-06-10T03:48:06.888Z,99.99
2018-06-10T03:49:06.891Z,99.99
2018-06-10T03:50:06.904Z,99.99
2018-06-10T03:51:06.898Z,99.99
2018-06-10T03:52:06.899Z,99.99
2018-06-10T03:53:06.903Z,99.99
2018-06-10T03:54:06.911Z,99.99
2018-06-10T03:55:06.912Z,99.99
2018-06-10T03:56:06.925Z,99.99
2018-06-10T03:57:06.917Z,99.99
2018-06-10T03:58:06.923Z,99.99
2018-06-10T03:59:06.925Z,99.99
2018-06-10T04:00:06.933Z,99.99
2018-06-10T04:01:06.932Z,99.99
2018-06-10T04:02:06.935Z,99.99
2018-06-10T04:03:06.940Z,99.99
2018-06-10T04:04:06.947Z,99.99
2018-06-10T04:05:06.952Z,99.99
2018-06-10T04:06:06.952Z,99.99
2018-06-10T04:07:06.969Z,99.99
2018-06-10T04:08:06.961Z,99.99
2018-06-10T04:09:06.967Z,99.99
2018-06-10T04:10:06.968Z,99.99
2018-06-10T04:11:06.970Z,99.99
2018-06-10T04:12:06.973Z,99.99
2018-06-10T04:13:06.979Z,99.99
2018-06-10T04:14:06.984Z,99.99
2018-06-10T04:15:06.991Z,99.99
2018-06-10T04:16:06.992Z,99.99
2018-06-10T04:17:06.994Z,99.99
2018-06-10T04:18:06.997Z,99.99
2018-06-10T04:19:07.001Z,99.99
2018-06-10T04:20:07.007Z,99.99
2018-06-10T04:21:07.011Z,99.99
2018-06-10T04:22:07.015Z,99.99
2018-06-10T04:23:07.015Z,99.99
2018-06-10T04:24:07.021Z,99.99
2018-06-10T04:25:07.026Z,99.99
2018-06-10T04:26:07.030Z,99.99
2018-06-10T04:27:07.033Z,99.99
2018-06-10T04:28:07.037Z,99.99
2018-06-10T04:29:07.045Z,99.99
2018-06-10T04:30:07.053Z,99.99
2018-06-10T04:31:07.046Z,99.99
2018-06-10T04:32:07.051Z,99.99
2018-06-10T04:33:07.057Z,99.99
2018-06-10T04:34:07.064Z,99.99
2018-06-10T04:35:07.063Z,99.99
2018-06-10T04:36:07.068Z,99.99
2018-06-10T04:37:07.076Z,99.99
2018-06-10T04:38:07.075Z,99.99
2018-06-10T04:39:07.080Z,99.99
2018-06-10T04:40:07.088Z,99.99
2018-06-10T04:41:07.089Z,99.99
2018-06-10T04:42:07.091Z,99.99
2018-06-10T04:43:07.112Z,99.99
2018-06-10T04:44:07.097Z,99.99
2018-06-10T04:45:07.105Z,99.99
2018-06-10T04:46:07.113Z,99.99
2018-06-10T04:47:07.156Z,99.99
2018-06-10T04:48:07.116Z,99.99
2018-06-10T04:49:07.117Z,99.99
2018-06-10T04:50:07.120Z,99.99
2018-06-10T04:51:07.127Z,99.99
2018-06-10T04:52:07.132Z,99.99
2018-06-10T04:53:07.153Z,99.99
2018-06-10T04:54:07.141Z,99.99
2018-06-10T04:55:07.154Z,99.99
2018-06-10T04:56:07.157Z,99.99
2018-06-10T04:57:07.152Z,99.99
2018-06-10T04:58:07.154Z,99.99
2018-06-10T04:59:07.168Z,99.99
2018-06-10T05:00:07.170Z,99.99
2018-06-10T05:01:07.168Z,99.99
2018-06-10T05:02:07.171Z,99.99
2018-06-10T05:03:07.175Z,99.99
2018-06-10T05:04:07.176Z,99.99
2018-06-10T05:05:07.182Z,99.99
2018-06-10T05:06:07.189Z,99.99
2018-06-10T05:07:07.189Z,99.99
2018-06-10T05:08:07.195Z,99.99
2018-06-10T05:09:07.200Z,99.99
2018-06-10T05:10:07.209Z,99.99
2018-06-10T05:11:07.208Z,99.99
2018-06-10T05:12:07.236Z,99.99
2018-06-10T05:13:07.228Z,99.99
2018-06-10T05:14:07.234Z,99.99
2018-06-10T05:15:07.227Z,99.99
2018-06-10T05:16:07.226Z,99.99
2018-06-10T05:17:07.233Z,99.99
2018-06-10T05:18:07.241Z,99.99
2018-06-10T05:19:07.239Z,99.99
2018-06-10T05:20:07.248Z,99.99
2018-06-10T05:21:07.252Z,99.99
2018-06-10T05:22:07.250Z,99.99
2018-06-10T05:23:07.255Z,99.99
2018-06-10T05:24:07.262Z,99.99
2018-06-10T05:25:07.272Z,99.99
2018-06-10T05:26:07.273Z,99.99
2018-06-10T05:27:07.274Z,99.99
2018-06-10T05:28:07.276Z,99.99
2018-06-10T05:29:07.282Z,99.99
2018-06-10T05:30:07.287Z,99.99
2018-06-10T05:31:07.290Z,99.99
2018-06-10T05:32:07.295Z,99.99
2018-06-10T05:33:07.298Z,99.99
2018-06-10T05:34:07.304Z,99.99
2018-06-10T05:35:07.307Z,99.99
2018-06-10T05:36:07.312Z,99.99
2018-06-10T05:37:07.319Z,99.99
2018-06-10T05:38:07.320Z,99.99
2018-06-10T05:39:07.323Z,99.99
2018-06-10T05:40:07.335Z,99.99
2018-06-10T05:41:07.331Z,99.99
2018-06-10T05:42:07.340Z,99.99
2018-06-10T05:43:07.364Z,99.99
2018-06-10T05:44:07.345Z,99.99
2018-06-10T05:45:07.350Z,99.99
2018-06-10T05:46:07.356Z,99.99
2018-06-10T05:47:07.373Z,99.99
2018-06-10T05:48:07.375Z,99.99
2018-06-10T05:49:07.370Z,99.99
2018-06-10T05:50:07.369Z,99.99
2018-06-10T05:51:07.388Z,99.99
2018-06-10T05:52:07.392Z,99.99
2018-06-10T05:53:07.385Z,99.99
2018-06-10T05:54:07.389Z,99.99
2018-06-10T05:55:07.389Z,99.99
2018-06-10T05:56:07.393Z,99.99
2018-06-10T05:57:07.400Z,99.99
2018-06-10T05:58:07.407Z,99.99
2018-06-10T05:59:07.413Z,99.99
2018-06-10T06:00:07.415Z,99.99
2018-06-10T06:01:07.425Z,99.99
2018-06-10T06:02:07.425Z,99.99
2018-06-10T06:03:07.426Z,99.99
2018-06-10T06:04:07.434Z,99.99
2018-06-10T06:05:07.437Z,99.99
2018-06-10T06:06:07.441Z,99.99
2018-06-10T06:07:07.457Z,99.99
2018-06-10T06:08:07.469Z,99.99
2018-06-10T06:09:07.458Z,99.99
2018-06-10T06:10:07.461Z,99.99
2018-06-10T06:11:07.462Z,99.99
2018-06-10T06:12:07.474Z,99.99
2018-06-10T06:13:07.473Z,99.99
2018-06-10T06:14:07.476Z,99.99
2018-06-10T06:15:08.215Z,99.99
2018-06-10T06:16:07.489Z,99.99
2018-06-10T06:17:07.493Z,99.99
2018-06-10T06:18:07.506Z,99.99
2018-06-10T06:19:07.512Z,99.99
2018-06-10T06:20:07.504Z,99.99
2018-06-10T06:21:07.510Z,99.99
2018-06-10T06:22:07.516Z,99.99
2018-06-10T06:23:07.520Z,99.99
2018-06-10T06:24:07.523Z,99.99
2018-06-10T06:25:07.526Z,99.99
2018-06-10T06:26:07.532Z,99.99
2018-06-10T06:27:07.545Z,99.99
2018-06-10T06:28:07.546Z,99.99
2018-06-10T06:29:07.631Z,99.99
2018-06-10T06:30:07.715Z,99.99
2018-06-10T06:31:07.558Z,99.99
2018-06-10T06:32:07.713Z,99.99
2018-06-10T06:33:07.566Z,99.99
2018-06-10T06:34:07.573Z,99.99
2018-06-10T06:35:07.662Z,99.99
2018-06-10T06:36:07.680Z,99.99
2018-06-10T06:37:07.742Z,99.99
2018-06-10T06:38:17.165Z,99.99
2018-06-10T06:40:03.995Z,99.99
2018-06-10T06:41:01.497Z,99.99
2018-06-10T06:43:15.661Z,99.99
2018-06-10T06:46:15.885Z,99.99
2018-06-10T06:47:20.925Z,99.99
2018-06-10T06:49:05.707Z,99.99
2018-06-10T06:50:07.504Z,99.99
2018-06-10T06:51:58.664Z,99.99
2018-06-10T06:52:58.474Z,99.99
2018-06-10T06:54:51.638Z,99.99
2018-06-10T06:55:51.667Z,99.99
2018-06-10T06:57:44.920Z,99.99
2018-06-10T06:58:44.626Z,99.99
2018-06-10T07:00:37.955Z,99.99
2018-06-10T07:01:37.744Z,99.99
2018-06-10T07:03:31.045Z,99.99
2018-06-10T07:04:30.986Z,99.99
2018-06-10T07:06:24.062Z,99.99
2018-06-10T07:07:24.198Z,99.99
2018-06-10T07:09:16.997Z,99.99
2018-06-10T07:10:16.569Z,99.99
2018-06-10T07:12:10.200Z,99.99
2018-06-10T07:13:09.866Z,99.99
2018-06-10T07:15:03.073Z,99.99
2018-06-10T07:16:02.755Z,99.99
2018-06-10T07:17:56.790Z,99.99
2018-06-10T07:18:56.025Z,99.99
2018-06-10T07:20:49.543Z,99.99
2018-06-10T07:21:49.362Z,99.99
2018-06-10T07:23:42.564Z,99.99
2018-06-10T07:24:42.169Z,99.99
2018-06-10T07:26:36.129Z,99.99
2018-06-10T07:27:35.842Z,99.99
2018-06-10T07:29:29.009Z,99.99
2018-06-10T07:30:28.651Z,99.99
2018-06-10T07:32:22.311Z,99.99
2018-06-10T07:33:22.084Z,99.99
2018-06-10T07:35:15.382Z,99.99
2018-06-10T07:36:15.003Z,99.99
2018-06-10T07:38:08.192Z,99.99
2018-06-10T07:39:09.070Z,99.99
2018-06-10T07:41:00.973Z,99.99
2018-06-10T07:42:00.758Z,99.99
2018-06-10T07:43:54.021Z,99.99
2018-06-10T07:44:53.603Z,99.99
2018-06-10T07:46:46.824Z,99.99
2018-06-10T07:47:46.728Z,99.99
2018-06-10T07:49:40.427Z,99.99
2018-06-10T07:50:40.164Z,99.99
2018-06-10T07:52:34.170Z,99.99
2018-06-10T07:53:33.997Z,99.99
2018-06-10T07:55:27.073Z,99.99
2018-06-10T07:56:26.816Z,99.99
2018-06-10T07:58:20.475Z,99.99
2018-06-10T07:59:20.517Z,99.99
2018-06-10T08:01:13.348Z,99.99
2018-06-10T08:02:13.400Z,99.99
2018-06-10T08:04:06.576Z,99.99
2018-06-10T08:05:06.118Z,99.99
2018-06-10T08:06:59.808Z,99.99
2018-06-10T08:07:59.182Z,99.99
2018-06-10T08:09:52.199Z,99.99
2018-06-10T08:10:53.877Z,99.99
2018-06-10T08:12:46.105Z,99.99
2018-06-10T08:13:45.136Z,99.99
2018-06-10T08:15:38.560Z,99.99
2018-06-10T08:16:38.567Z,99.99
2018-06-10T08:18:32.490Z,99.99
2018-06-10T08:19:33.451Z,99.99
2018-06-10T08:21:25.254Z,99.99
2018-06-10T08:22:25.911Z,99.99
2018-06-10T08:24:18.243Z,99.99
2018-06-10T08:25:18.132Z,99.99
2018-06-10T08:27:11.249Z,99.99
2018-06-10T08:28:11.110Z,99.99
2018-06-10T08:30:04.379Z,99.99
2018-06-10T08:31:04.926Z,99.99
2018-06-10T08:32:57.292Z,99.99
2018-06-10T08:33:57.203Z,99.99
2018-06-10T08:35:50.055Z,99.99
2018-06-10T08:36:49.795Z,99.99
2018-06-10T08:38:43.727Z,99.99
2018-06-10T08:39:43.536Z,99.99
2018-06-10T08:40:43.636Z,99.99
2018-06-10T08:41:43.719Z,99.99
2018-06-10T08:42:43.691Z,99.99
2018-06-10T08:43:43.290Z,99.99
2018-06-10T08:44:43.264Z,99.99
2018-06-10T08:45:43.277Z,99.99
2018-06-10T08:46:43.285Z,99.99
2018-06-10T08:47:43.270Z,99.99
2018-06-10T08:48:43.280Z,99.99
2018-06-10T08:49:43.279Z,99.99
2018-06-10T08:50:43.597Z,99.99
2018-06-10T08:51:46.293Z,99.99
2018-06-10T08:52:43.297Z,99.99
2018-06-10T08:53:43.340Z,99.99
2018-06-10T08:54:43.307Z,99.99
2018-06-10T08:55:43.311Z,99.36
2018-06-10T08:56:43.322Z,98.97
2018-06-10T08:57:43.322Z,97.23
2018-06-10T08:58:43.340Z,95.73
2018-06-10T08:59:43.336Z,95.34
2018-06-10T09:00:43.343Z,96.02
2018-06-10T09:01:43.350Z,94.71
2018-06-10T09:02:43.404Z,94.18
2018-06-10T09:03:43.365Z,93.07
2018-06-10T09:04:43.367Z,93.55
2018-06-10T09:05:43.376Z,92.68
2018-06-10T09:06:43.446Z,90.65
2018-06-10T09:07:46.120Z,90.84
2018-06-10T09:08:43.499Z,89.39
2018-06-10T09:09:43.402Z,90.46
2018-06-10T09:10:43.408Z,91.42
2018-06-10T09:11:43.415Z,89.88
2018-06-10T09:12:43.420Z,88.81
2018-06-10T09:13:43.429Z,90.56
2018-06-10T09:14:43.470Z,89.78
2018-06-10T09:15:43.444Z,91.04
2018-06-10T09:16:43.448Z,90.46
2018-06-10T09:17:43.454Z,90.41
2018-06-10T09:18:43.465Z,92.06
2018-06-10T09:19:43.471Z,92.97
2018-06-10T09:20:43.492Z,93.46
2018-06-10T09:21:43.483Z,91.82
2018-06-10T09:22:43.496Z,91.91
2018-06-10T09:23:46.129Z,91.62
2018-06-10T09:24:43.502Z,90.84
2018-06-10T09:25:43.511Z,91.33
2018-06-10T09:26:43.516Z,91.42
2018-06-10T09:27:43.535Z,91.62
2018-06-10T09:28:43.580Z,92.00
2018-06-10T09:29:43.537Z,91.42
2018-06-10T09:30:43.553Z,90.94
2018-06-10T09:31:43.550Z,90.94
2018-06-10T09:32:46.145Z,89.25
2018-06-10T09:33:43.572Z,88.37
2018-06-10T09:34:43.572Z,87.89
2018-06-10T09:35:45.141Z,87.12
2018-06-10T09:36:45.141Z,87.12
2018-06-10T09:37:43.603Z,87.16
2018-06-10T09:38:43.603Z,88.57
2018-06-10T09:39:45.139Z,86.58
2018-06-10T09:40:43.616Z,87.30
2018-06-10T09:41:43.631Z,85.75
2018-06-10T09:42:43.631Z,85.85
2018-06-10T09:43:43.742Z,84.82
2018-06-10T09:44:43.667Z,83.95
2018-06-10T09:45:43.801Z,83.85
2018-06-10T09:46:43.660Z,83.75
2018-06-10T09:47:43.674Z,83.22
2018-06-10T09:48:43.678Z,83.12
2018-06-10T09:49:43.680Z,81.95
2018-06-10T09:50:43.693Z,81.47
2018-06-10T09:51:43.696Z,81.47
2018-06-10T09:52:43.707Z,80.21
2018-06-10T09:53:43.710Z,82.15
2018-06-10T09:54:43.719Z,82.28
2018-06-10T09:55:43.783Z,80.73
2018-06-10T09:56:43.734Z,79.18
2018-06-10T09:57:43.743Z,79.04
2018-06-10T09:58:43.752Z,78.94
2018-06-10T09:59:43.759Z,79.33
2018-06-10T10:00:43.767Z,78.46
2018-06-10T10:01:43.777Z,78.36
2018-06-10T10:02:43.794Z,77.88
2018-06-10T10:03:43.793Z,78.85
2018-06-10T10:04:43.798Z,78.27
2018-06-10T10:05:43.808Z,78.56
2018-06-10T10:06:43.816Z,78.50
2018-06-10T10:07:43.833Z,78.89
2018-06-10T10:08:43.841Z,78.31
2018-06-10T10:09:43.838Z,78.15
2018-06-10T10:10:43.849Z,77.37
2018-06-10T10:11:43.858Z,77.47
2018-06-10T10:12:43.865Z,77.28
2018-06-10T10:13:44.139Z,76.44
2018-06-10T10:14:43.922Z,75.95
2018-06-10T10:15:43.963Z,75.67
2018-06-10T10:16:47.667Z,75.92
2018-06-10T10:17:45.758Z,75.98
2018-06-10T10:18:43.966Z,74.71
2018-06-10T10:19:44.846Z,77.29
2018-06-10T10:20:51.560Z,78.36
2018-06-10T10:22:40.314Z,78.69
2018-06-10T10:23:38.854Z,78.40
2018-06-10T10:25:33.828Z,76.31
2018-06-10T10:26:32.221Z,75.14
2018-06-10T10:30:09.820Z,74.43
2018-06-10T10:31:09.243Z,75.59
2018-06-10T10:33:01.748Z,77.20
2018-06-10T10:34:01.310Z,77.82
2018-06-10T10:35:55.914Z,75.68
2018-06-10T10:36:57.099Z,74.46
2018-06-10T10:38:49.927Z,73.88
2018-06-10T10:39:50.159Z,76.46
2018-06-10T10:41:43.461Z,75.88
2018-06-10T10:42:43.533Z,76.81
2018-06-10T10:43:42.700Z,78.23
2018-06-10T10:44:42.635Z,78.81
2018-06-10T10:45:43.477Z,78.58
2018-06-10T10:46:45.009Z,78.83
2018-06-10T10:47:42.681Z,80.19
2018-06-10T10:48:42.576Z,80.38
2018-06-10T10:49:43.422Z,80.34
2018-06-10T10:50:42.703Z,80.63
2018-06-10T10:51:42.343Z,81.56
2018-06-10T10:52:50.363Z,81.65
2018-06-10T10:54:35.997Z,82.76
2018-06-10T10:55:35.867Z,83.34
2018-06-10T10:57:29.372Z,82.51
2018-06-10T10:58:30.496Z,81.45
2018-06-10T11:00:23.381Z,81.93
2018-06-10T11:01:23.850Z,81.48
2018-06-10T11:03:16.632Z,80.42
2018-06-10T11:04:16.948Z,79.84
2018-06-10T11:06:09.624Z,78.91
2018-06-10T11:07:09.608Z,78.42
2018-06-10T11:09:02.725Z,78.03
2018-06-10T11:10:02.676Z,78.81
2018-06-10T11:11:55.357Z,78.03
2018-06-10T11:12:55.394Z,78.33
2018-06-10T11:14:49.162Z,78.85
2018-06-10T11:15:49.086Z,77.39
2018-06-10T11:17:42.054Z,77.98
2018-06-10T11:18:42.078Z,78.07
2018-06-10T11:20:35.202Z,78.40
2018-06-10T11:21:35.125Z,78.40
2018-06-10T11:23:28.443Z,75.92
2018-06-10T11:24:28.593Z,76.65
2018-06-10T11:26:21.594Z,76.37
2018-06-10T11:27:21.549Z,75.10
2018-06-10T11:29:14.784Z,76.62
2018-06-10T11:30:14.744Z,77.20
2018-06-10T11:32:08.628Z,78.40
2018-06-10T11:33:08.000Z,77.72
2018-06-10T11:35:01.573Z,78.50
2018-06-10T11:36:02.321Z,77.24
2018-06-10T11:38:11.746Z,75.98
2018-06-10T11:39:05.773Z,75.68
2018-06-10T11:40:08.107Z,76.17
2018-06-10T11:41:05.591Z,75.92
2018-06-10T11:43:01.332Z,76.89
2018-06-10T11:44:01.103Z,75.88
2018-06-10T11:45:53.920Z,76.01
2018-06-10T11:46:54.101Z,76.05
2018-06-10T11:48:46.828Z,74.54
2018-06-10T11:49:46.700Z,73.37
2018-06-10T11:50:46.750Z,73.08
2018-06-10T11:51:46.917Z,73.24
2018-06-10T11:52:48.224Z,74.27
2018-06-10T11:53:46.709Z,76.17
2018-06-10T11:54:46.731Z,76.07
2018-06-10T11:55:47.755Z,76.37
2018-06-10T11:56:46.730Z,76.72
2018-06-10T11:57:46.749Z,77.69
2018-06-10T11:58:46.769Z,76.32
2018-06-10T11:59:46.756Z,77.01
2018-06-10T12:00:46.766Z,77.01
2018-06-10T12:01:46.800Z,77.78
2018-06-10T12:02:46.780Z,77.20
2018-06-10T12:03:46.793Z,77.04
2018-06-10T12:04:46.822Z,76.17
2018-06-10T12:05:46.825Z,76.01
2018-06-10T12:06:46.816Z,76.21
2018-06-10T12:07:46.896Z,75.92
2018-06-10T12:08:46.832Z,75.24
2018-06-10T12:09:46.838Z,75.18
2018-06-10T12:10:46.878Z,75.34
2018-06-10T12:11:46.854Z,76.04
2018-06-10T12:12:46.864Z,77.01
2018-06-10T12:13:46.925Z,77.49
2018-06-10T12:14:46.879Z,78.27
2018-06-10T12:15:46.890Z,78.07
2018-06-10T12:16:46.898Z,78.21
2018-06-10T12:17:46.904Z,76.89
2018-06-10T12:18:46.920Z,76.97
2018-06-10T12:19:46.923Z,73.85
2018-06-10T12:20:46.930Z,74.08
2018-06-10T12:21:46.939Z,73.44
2018-06-10T12:22:46.981Z,73.15
2018-06-10T12:23:46.956Z,72.47
2018-06-10T12:24:46.964Z,71.88
2018-06-10T12:25:46.974Z,69.94
2018-06-10T12:26:46.982Z,70.49
2018-06-10T12:27:46.991Z,71.52
2018-06-10T12:28:47.000Z,72.30
2018-06-10T12:29:47.008Z,73.33
2018-06-10T12:30:47.016Z,73.46
2018-06-10T12:31:47.024Z,73.75
2018-06-10T12:32:47.035Z,73.66
2018-06-10T12:33:47.041Z,73.82
2018-06-10T12:34:47.055Z,75.18
2018-06-10T12:35:47.059Z,75.67
2018-06-10T12:36:47.070Z,75.47
2018-06-10T12:37:47.075Z,74.98
2018-06-10T12:38:47.086Z,74.56
2018-06-10T12:39:47.094Z,74.37
2018-06-10T12:40:47.103Z,73.49
2018-06-10T12:41:47.123Z,75.78
2018-06-10T12:42:47.124Z,75.84
2018-06-10T12:43:47.131Z,76.91
2018-06-10T12:44:47.140Z,77.98
2018-06-10T12:45:47.154Z,76.39
2018-06-10T12:46:47.167Z,76.97
2018-06-10T12:47:47.159Z,77.98
2018-06-10T12:48:47.172Z,76.42
2018-06-10T12:49:47.199Z,76.75
2018-06-10T12:50:47.188Z,75.92
2018-06-10T12:51:47.192Z,74.85
2018-06-10T12:52:47.205Z,74.60
2018-06-10T12:53:47.210Z,74.11
2018-06-10T12:54:48.750Z,73.66
2018-06-10T12:55:47.224Z,73.72
2018-06-10T12:56:47.235Z,73.14
2018-06-10T12:57:47.241Z,72.85
2018-06-10T12:58:47.254Z,73.62
2018-06-10T12:59:47.260Z,74.98
2018-06-10T13:00:47.276Z,72.91
2018-06-10T13:01:47.276Z,73.39
2018-06-10T13:02:47.285Z,75.62
2018-06-10T13:03:47.302Z,74.88
2018-06-10T13:04:47.303Z,74.21
2018-06-10T13:05:47.306Z,74.54
2018-06-10T13:06:47.321Z,73.30
2018-06-10T13:07:47.326Z,71.17
2018-06-10T13:08:47.337Z,70.78
2018-06-10T13:09:47.348Z,71.72
2018-06-10T13:10:47.360Z,72.01
2018-06-10T13:11:47.363Z,73.37
2018-06-10T13:12:47.391Z,73.46
2018-06-10T13:13:47.383Z,73.72
2018-06-10T13:14:47.387Z,73.72
2018-06-10T13:15:47.412Z,73.24
2018-06-10T13:16:54.986Z,72.85
2018-06-10T13:18:40.422Z,73.72
2018-06-10T13:19:40.336Z,73.52
2018-06-10T13:21:34.099Z,73.20
2018-06-10T13:22:33.197Z,74.27
2018-06-10T13:24:26.687Z,73.58
2018-06-10T13:25:26.642Z,73.78
2018-06-10T13:27:20.100Z,74.07
2018-06-10T13:28:20.039Z,73.97
2018-06-10T13:30:13.504Z,72.17
2018-06-10T13:31:13.477Z,72.27
2018-06-10T13:33:06.434Z,73.00
2018-06-10T13:34:06.386Z,73.52
2018-06-10T13:35:59.277Z,73.72
2018-06-10T13:36:59.309Z,72.59
2018-06-10T13:38:52.784Z,71.10
2018-06-10T13:39:52.186Z,70.03
2018-06-10T13:41:45.193Z,72.85
2018-06-10T13:42:45.077Z,72.36
2018-06-10T13:44:38.064Z,72.17
2018-06-10T13:45:37.998Z,72.65
2018-06-10T13:49:32.843Z,70.55
2018-06-10T13:50:11.752Z,70.00
2018-06-10T13:52:04.791Z,69.42
2018-06-10T13:53:04.652Z,69.81
2018-06-10T13:54:58.138Z,70.12
2018-06-10T13:55:58.127Z,71.20
2018-06-10T13:57:51.496Z,71.64
2018-06-10T13:58:51.411Z,70.77
2018-06-10T14:00:44.866Z,72.71
2018-06-10T14:01:44.838Z,72.61
2018-06-10T14:03:37.763Z,73.94
2018-06-10T14:04:37.764Z,73.58
2018-06-10T14:05:37.930Z,74.27
2018-06-10T14:06:37.735Z,74.81
2018-06-10T14:07:37.730Z,73.55
2018-06-10T14:08:37.734Z,74.33
2018-06-10T14:09:37.746Z,74.49
2018-06-10T14:10:37.757Z,74.43
2018-06-10T14:11:37.757Z,74.81